sensor_id;sensor_type;location;lat;lon;timestamp;pressure;altitude;pressure_sealevel;temperature;humidity
43503;BME280;29098;48.184;16.298;2023-08-21T00:01:13;99845.56;;;23.03;100.00
43503;BME280;29098;48.184;16.298;2023-08-21T00:03:39;99850.63;;;22.99;100.00
43503;BME280;29098;48.184;16.298;2023-08-21T00:06:04;99859.53;;;23.05;100.00
43503;BME280;29098;48.184;16.298;2023-08-21T00:08:33;99848.91;;;22.88;100.00
43503;BME280;29098;48.184;16.298;2023-08-21T00:11:00;99849.06;;;22.81;100.00
43503;BME280;29098;48.184;16.298;2023-08-21T00:13:26;99842.94;;;22.85;100.00
43503;BME280;29098;48.184;16.298;2023-08-21T00:15:52;99823.81;;;22.82;100.00
43503;BME280;29098;48.184;16.298;2023-08-21T00:18:17;99818.88;;;22.74;100.00
43503;BME280;29098;48.184;16.298;2023-08-21T00:20:43;99837.84;;;22.84;100.00
43503;BME280;29098;48.184;16.298;2023-08-21T00:23:08;99843.63;;;22.76;100.00
43503;BME280;29098;48.184;16.298;2023-08-21T00:25:34;99842.44;;;22.66;100.00
43503;BME280;29098;48.184;16.298;2023-08-21T00:28:00;99835.56;;;22.76;100.00
43503;BME280;29098;48.184;16.298;2023-08-21T00:30:25;99839.31;;;22.75;100.00
43503;BME280;29098;48.184;16.298;2023-08-21T00:32:51;99842.94;;;22.63;100.00
43503;BME280;29098;48.184;16.298;2023-08-21T00:35:16;99844.13;;;22.73;100.00
43503;BME280;29098;48.184;16.298;2023-08-21T00:37:41;99839.13;;;22.59;100.00
43503;BME280;29098;48.184;16.298;2023-08-21T00:40:07;99844.66;;;22.69;100.00
43503;BME280;29098;48.184;16.298;2023-08-21T00:42:33;99808.66;;;22.70;100.00
43503;BME280;29098;48.184;16.298;2023-08-21T00:44:59;99809.88;;;22.63;100.00
43503;BME280;29098;48.184;16.298;2023-08-21T00:47:24;99816.56;;;22.60;100.00
43503;BME280;29098;48.184;16.298;2023-08-21T00:49:50;99826.72;;;22.53;100.00
43503;BME280;29098;48.184;16.298;2023-08-21T00:52:17;99830.59;;;22.62;100.00
43503;BME280;29098;48.184;16.298;2023-08-21T00:54:43;99839.28;;;22.30;100.00
43503;BME280;29098;48.184;16.298;2023-08-21T00:57:10;99831.13;;;22.42;100.00
43503;BME280;29098;48.184;16.298;2023-08-21T00:59:36;99828.84;;;22.34;100.00
43503;BME280;29098;48.184;16.298;2023-08-21T01:02:02;99830.31;;;22.24;100.00
43503;BME280;29098;48.184;16.298;2023-08-21T01:04:28;99815.66;;;22.32;100.00
43503;BME280;29098;48.184;16.298;2023-08-21T01:06:54;99830.16;;;22.31;100.00
43503;BME280;29098;48.184;16.298;2023-08-21T01:12:14;99834.13;;;22.46;100.00
43503;BME280;29098;48.184;16.298;2023-08-21T01:14:52;99815.03;;;22.47;100.00
43503;BME280;29098;48.184;16.298;2023-08-21T01:17:19;99820.84;;;22.39;100.00
43503;BME280;29098;48.184;16.298;2023-08-21T01:19:48;99834.50;;;22.37;100.00
43503;BME280;29098;48.184;16.298;2023-08-21T01:22:17;99843.97;;;22.40;100.00
43503;BME280;29098;48.184;16.298;2023-08-21T01:24:45;99833.41;;;22.33;100.00
43503;BME280;29098;48.184;16.298;2023-08-21T01:27:12;99836.53;;;22.25;100.00
43503;BME280;29098;48.184;16.298;2023-08-21T01:29:40;99844.16;;;22.33;100.00
43503;BME280;29098;48.184;16.298;2023-08-21T01:32:40;99821.63;;;22.17;100.00
43503;BME280;29098;48.184;16.298;2023-08-21T01:34:58;99814.75;;;22.04;100.00
43503;BME280;29098;48.184;16.298;2023-08-21T01:37:24;99831.56;;;22.16;100.00
43503;BME280;29098;48.184;16.298;2023-08-21T01:39:51;99827.81;;;22.17;100.00
43503;BME280;29098;48.184;16.298;2023-08-21T01:42:17;99839.31;;;22.13;100.00
43503;BME280;29098;48.184;16.298;2023-08-21T01:44:42;99838.00;;;22.15;100.00
43503;BME280;29098;48.184;16.298;2023-08-21T01:47:11;99840.09;;;22.13;100.00
43503;BME280;29098;48.184;16.298;2023-08-21T01:49:37;99828.81;;;21.94;100.00
43503;BME280;29098;48.184;16.298;2023-08-21T01:52:03;99827.78;;;21.95;100.00
43503;BME280;29098;48.184;16.298;2023-08-21T01:54:28;99826.97;;;21.95;100.00
43503;BME280;29098;48.184;16.298;2023-08-21T01:56:54;99837.28;;;22.03;100.00
43503;BME280;29098;48.184;16.298;2023-08-21T01:59:20;99840.84;;;22.09;100.00
43503;BME280;29098;48.184;16.298;2023-08-21T02:01:45;99823.63;;;21.87;100.00
43503;BME280;29098;48.184;16.298;2023-08-21T02:04:11;99814.44;;;21.83;100.00
43503;BME280;29098;48.184;16.298;2023-08-21T02:06:36;99828.50;;;21.90;100.00
43503;BME280;29098;48.184;16.298;2023-08-21T02:09:02;99825.75;;;21.85;100.00
43503;BME280;29098;48.184;16.298;2023-08-21T02:11:27;99828.19;;;21.70;100.00
43503;BME280;29098;48.184;16.298;2023-08-21T02:13:53;99850.88;;;21.96;100.00
43503;BME280;29098;48.184;16.298;2023-08-21T02:16:18;99823.53;;;21.82;100.00
43503;BME280;29098;48.184;16.298;2023-08-21T02:18:45;99849.41;;;21.88;100.00
43503;BME280;29098;48.184;16.298;2023-08-21T02:21:11;99793.44;;;21.63;100.00
43503;BME280;29098;48.184;16.298;2023-08-21T02:23:37;99828.25;;;21.75;100.00
43503;BME280;29098;48.184;16.298;2023-08-21T02:26:02;99815.22;;;21.67;100.00
43503;BME280;29098;48.184;16.298;2023-08-21T02:28:28;99850.22;;;21.72;100.00
43503;BME280;29098;48.184;16.298;2023-08-21T02:30:53;99844.16;;;21.65;100.00
43503;BME280;29098;48.184;16.298;2023-08-21T02:33:19;99838.19;;;21.74;100.00
43503;BME280;29098;48.184;16.298;2023-08-21T02:35:45;99826.84;;;21.55;100.00
43503;BME280;29098;48.184;16.298;2023-08-21T02:38:10;99831.00;;;21.46;100.00
43503;BME280;29098;48.184;16.298;2023-08-21T02:40:36;99847.81;;;21.58;100.00
43503;BME280;29098;48.184;16.298;2023-08-21T02:43:01;99828.25;;;21.58;100.00
43503;BME280;29098;48.184;16.298;2023-08-21T02:45:27;99823.44;;;21.60;100.00
43503;BME280;29098;48.184;16.298;2023-08-21T02:47:53;99840.38;;;21.60;100.00
43503;BME280;29098;48.184;16.298;2023-08-21T02:50:18;99858.94;;;21.50;100.00
43503;BME280;29098;48.184;16.298;2023-08-21T02:52:44;99846.50;;;21.44;100.00
43503;BME280;29098;48.184;16.298;2023-08-21T02:55:09;99836.94;;;21.65;100.00
43503;BME280;29098;48.184;16.298;2023-08-21T02:57:34;99841.06;;;21.39;100.00
43503;BME280;29098;48.184;16.298;2023-08-21T03:00:00;99856.66;;;21.42;100.00
43503;BME280;29098;48.184;16.298;2023-08-21T03:02:26;99834.72;;;21.45;100.00
43503;BME280;29098;48.184;16.298;2023-08-21T03:04:52;99871.31;;;21.51;100.00
43503;BME280;29098;48.184;16.298;2023-08-21T03:07:17;99846.16;;;21.40;100.00
43503;BME280;29098;48.184;16.298;2023-08-21T03:09:45;99841.19;;;21.32;100.00
43503;BME280;29098;48.184;16.298;2023-08-21T03:12:12;99844.69;;;21.32;100.00
43503;BME280;29098;48.184;16.298;2023-08-21T03:14:38;99836.31;;;21.29;100.00
43503;BME280;29098;48.184;16.298;2023-08-21T03:17:04;99839.91;;;21.34;100.00
43503;BME280;29098;48.184;16.298;2023-08-21T03:19:29;99859.91;;;21.27;100.00
43503;BME280;29098;48.184;16.298;2023-08-21T03:21:55;99839.34;;;21.32;100.00
43503;BME280;29098;48.184;16.298;2023-08-21T03:24:20;99833.22;;;21.20;100.00
43503;BME280;29098;48.184;16.298;2023-08-21T03:26:48;99838.56;;;21.20;100.00
43503;BME280;29098;48.184;16.298;2023-08-21T03:29:13;99841.69;;;21.29;100.00
43503;BME280;29098;48.184;16.298;2023-08-21T03:31:39;99826.41;;;21.29;100.00
43503;BME280;29098;48.184;16.298;2023-08-21T03:34:04;99824.72;;;21.23;100.00
43503;BME280;29098;48.184;16.298;2023-08-21T03:36:30;99836.00;;;21.25;100.00
43503;BME280;29098;48.184;16.298;2023-08-21T03:38:57;99814.28;;;21.10;100.00
43503;BME280;29098;48.184;16.298;2023-08-21T03:41:23;99854.66;;;21.20;100.00
43503;BME280;29098;48.184;16.298;2023-08-21T03:43:49;99837.78;;;21.19;100.00
43503;BME280;29098;48.184;16.298;2023-08-21T03:46:14;99843.94;;;21.20;100.00
43503;BME280;29098;48.184;16.298;2023-08-21T03:48:40;99857.66;;;21.06;100.00
43503;BME280;29098;48.184;16.298;2023-08-21T03:51:05;99851.47;;;21.06;100.00
43503;BME280;29098;48.184;16.298;2023-08-21T03:53:31;99823.75;;;21.00;100.00
43503;BME280;29098;48.184;16.298;2023-08-21T03:55:56;99826.78;;;21.04;100.00
43503;BME280;29098;48.184;16.298;2023-08-21T03:58:22;99850.91;;;21.04;100.00
43503;BME280;29098;48.184;16.298;2023-08-21T04:00:47;99844.66;;;21.15;100.00
43503;BME280;29098;48.184;16.298;2023-08-21T04:03:13;99855.75;;;21.07;100.00
43503;BME280;29098;48.184;16.298;2023-08-21T04:05:38;99829.72;;;20.90;100.00
43503;BME280;29098;48.184;16.298;2023-08-21T04:08:04;99821.22;;;20.81;100.00
43503;BME280;29098;48.184;16.298;2023-08-21T04:10:29;99839.97;;;20.93;100.00
43503;BME280;29098;48.184;16.298;2023-08-21T04:12:55;99855.28;;;21.10;100.00
43503;BME280;29098;48.184;16.298;2023-08-21T04:15:20;99829.72;;;20.90;100.00
43503;BME280;29098;48.184;16.298;2023-08-21T04:17:46;99821.69;;;20.90;100.00
43503;BME280;29098;48.184;16.298;2023-08-21T04:20:11;99851.00;;;20.97;100.00
43503;BME280;29098;48.184;16.298;2023-08-21T04:22:37;99846.16;;;20.94;100.00
43503;BME280;29098;48.184;16.298;2023-08-21T04:25:02;99873.84;;;21.00;100.00
43503;BME280;29098;48.184;16.298;2023-08-21T04:27:28;99859.72;;;21.04;100.00
43503;BME280;29098;48.184;16.298;2023-08-21T04:29:54;99864.72;;;21.13;100.00
43503;BME280;29098;48.184;16.298;2023-08-21T04:32:19;99866.81;;;21.11;100.00
43503;BME280;29098;48.184;16.298;2023-08-21T04:34:44;99847.00;;;21.12;100.00
43503;BME280;29098;48.184;16.298;2023-08-21T04:37:10;99831.88;;;21.05;100.00
43503;BME280;29098;48.184;16.298;2023-08-21T04:39:35;99864.16;;;21.11;100.00
43503;BME280;29098;48.184;16.298;2023-08-21T04:42:02;99871.28;;;21.05;100.00
43503;BME280;29098;48.184;16.298;2023-08-21T04:44:27;99869.72;;;21.09;100.00
43503;BME280;29098;48.184;16.298;2023-08-21T04:46:53;99852.75;;;21.03;100.00
43503;BME280;29098;48.184;16.298;2023-08-21T04:49:18;99868.72;;;20.98;100.00
43503;BME280;29098;48.184;16.298;2023-08-21T04:51:44;99888.53;;;20.97;100.00
43503;BME280;29098;48.184;16.298;2023-08-21T04:54:09;99861.94;;;21.07;100.00
43503;BME280;29098;48.184;16.298;2023-08-21T04:56:34;99879.88;;;21.07;100.00
43503;BME280;29098;48.184;16.298;2023-08-21T04:59:00;99872.00;;;21.00;100.00
43503;BME280;29098;48.184;16.298;2023-08-21T05:01:25;99851.69;;;21.04;100.00
43503;BME280;29098;48.184;16.298;2023-08-21T05:03:51;99875.09;;;21.09;100.00
43503;BME280;29098;48.184;16.298;2023-08-21T05:06:16;99870.06;;;21.13;100.00
43503;BME280;29098;48.184;16.298;2023-08-21T05:08:42;99879.09;;;21.06;100.00
43503;BME280;29098;48.184;16.298;2023-08-21T05:11:07;99883.78;;;20.99;100.00
43503;BME280;29098;48.184;16.298;2023-08-21T05:13:33;99886.16;;;21.13;100.00
43503;BME280;29098;48.184;16.298;2023-08-21T05:15:59;99866.16;;;21.03;100.00
43503;BME280;29098;48.184;16.298;2023-08-21T05:18:25;99876.09;;;21.20;100.00
43503;BME280;29098;48.184;16.298;2023-08-21T05:20:55;99866.16;;;21.03;100.00
43503;BME280;29098;48.184;16.298;2023-08-21T05:23:21;99867.44;;;21.01;100.00
43503;BME280;29098;48.184;16.298;2023-08-21T05:25:48;99879.31;;;21.05;100.00
43503;BME280;29098;48.184;16.298;2023-08-21T05:28:14;99867.28;;;21.19;100.00
43503;BME280;29098;48.184;16.298;2023-08-21T05:30:39;99870.34;;;21.11;100.00
43503;BME280;29098;48.184;16.298;2023-08-21T05:33:05;99883.25;;;21.14;100.00
43503;BME280;29098;48.184;16.298;2023-08-21T05:35:36;99874.19;;;21.03;100.00
43503;BME280;29098;48.184;16.298;2023-08-21T05:38:05;99869.31;;;21.29;100.00
43503;BME280;29098;48.184;16.298;2023-08-21T05:40:31;99897.00;;;21.47;100.00
43503;BME280;29098;48.184;16.298;2023-08-21T05:42:57;99901.59;;;21.34;100.00
43503;BME280;29098;48.184;16.298;2023-08-21T05:45:23;99902.47;;;21.40;100.00
43503;BME280;29098;48.184;16.298;2023-08-21T05:47:48;99886.56;;;21.33;100.00
43503;BME280;29098;48.184;16.298;2023-08-21T05:50:14;99893.78;;;21.33;100.00
43503;BME280;29098;48.184;16.298;2023-08-21T05:52:40;99873.72;;;21.35;100.00
43503;BME280;29098;48.184;16.298;2023-08-21T05:55:05;99894.53;;;21.45;100.00
43503;BME280;29098;48.184;16.298;2023-08-21T05:57:31;99888.56;;;21.55;100.00
43503;BME280;29098;48.184;16.298;2023-08-21T05:59:56;99910.13;;;21.60;100.00
43503;BME280;29098;48.184;16.298;2023-08-21T06:02:22;99911.97;;;21.60;100.00
43503;BME280;29098;48.184;16.298;2023-08-21T06:04:47;99879.16;;;21.41;100.00
43503;BME280;29098;48.184;16.298;2023-08-21T06:07:13;99903.03;;;21.54;100.00
43503;BME280;29098;48.184;16.298;2023-08-21T06:09:38;99907.91;;;21.57;100.00
43503;BME280;29098;48.184;16.298;2023-08-21T06:12:04;99881.78;;;21.53;100.00
43503;BME280;29098;48.184;16.298;2023-08-21T06:14:30;99913.59;;;21.61;100.00
43503;BME280;29098;48.184;16.298;2023-08-21T06:17:00;99901.41;;;21.53;100.00
43503;BME280;29098;48.184;16.298;2023-08-21T06:19:26;99908.22;;;21.61;100.00
43503;BME280;29098;48.184;16.298;2023-08-21T06:21:52;99912.16;;;21.70;100.00
43503;BME280;29098;48.184;16.298;2023-08-21T06:24:18;99902.91;;;21.78;100.00
43503;BME280;29098;48.184;16.298;2023-08-21T06:26:43;99917.16;;;21.67;100.00
43503;BME280;29098;48.184;16.298;2023-08-21T06:29:09;99916.25;;;21.73;100.00
43503;BME280;29098;48.184;16.298;2023-08-21T06:31:34;99875.53;;;21.64;100.00
43503;BME280;29098;48.184;16.298;2023-08-21T06:34:00;99914.88;;;21.87;100.00
43503;BME280;29098;48.184;16.298;2023-08-21T06:36:25;99900.47;;;21.76;100.00
43503;BME280;29098;48.184;16.298;2023-08-21T06:38:51;99901.63;;;21.81;100.00
43503;BME280;29098;48.184;16.298;2023-08-21T06:41:16;99899.19;;;21.79;100.00
43503;BME280;29098;48.184;16.298;2023-08-21T06:43:42;99919.69;;;21.85;100.00
43503;BME280;29098;48.184;16.298;2023-08-21T06:46:07;99925.72;;;21.93;100.00
43503;BME280;29098;48.184;16.298;2023-08-21T06:48:34;99890.56;;;21.94;100.00
43503;BME280;29098;48.184;16.298;2023-08-21T06:51:00;99899.03;;;22.03;100.00
43503;BME280;29098;48.184;16.298;2023-08-21T06:53:27;99881.63;;;21.88;100.00
43503;BME280;29098;48.184;16.298;2023-08-21T06:55:54;99912.88;;;22.12;100.00
43503;BME280;29098;48.184;16.298;2023-08-21T06:58:19;99915.59;;;22.17;100.00
43503;BME280;29098;48.184;16.298;2023-08-21T07:00:45;99906.91;;;22.27;100.00
43503;BME280;29098;48.184;16.298;2023-08-21T07:03:10;99898.84;;;22.27;100.00
43503;BME280;29098;48.184;16.298;2023-08-21T07:05:37;99887.69;;;22.35;100.00
43503;BME280;29098;48.184;16.298;2023-08-21T07:08:02;99900.88;;;22.54;100.00
43503;BME280;29098;48.184;16.298;2023-08-21T07:10:28;99856.59;;;22.39;100.00
43503;BME280;29098;48.184;16.298;2023-08-21T07:12:54;99870.63;;;22.64;100.00
43503;BME280;29098;48.184;16.298;2023-08-21T07:15:20;99900.25;;;22.91;100.00
43503;BME280;29098;48.184;16.298;2023-08-21T07:17:46;99894.81;;;23.08;100.00
43503;BME280;29098;48.184;16.298;2023-08-21T07:20:11;99878.13;;;23.06;100.00
43503;BME280;29098;48.184;16.298;2023-08-21T07:22:37;99893.78;;;23.37;100.00
43503;BME280;29098;48.184;16.298;2023-08-21T07:25:03;99906.59;;;23.52;100.00
43503;BME280;29098;48.184;16.298;2023-08-21T07:27:32;99869.84;;;23.63;100.00
43503;BME280;29098;48.184;16.298;2023-08-21T07:29:58;99878.03;;;23.78;100.00
43503;BME280;29098;48.184;16.298;2023-08-21T07:32:24;99890.94;;;24.09;96.50
43503;BME280;29098;48.184;16.298;2023-08-21T07:34:53;99883.25;;;24.23;94.98
43503;BME280;29098;48.184;16.298;2023-08-21T07:37:21;99867.06;;;24.23;94.88
43503;BME280;29098;48.184;16.298;2023-08-21T07:39:47;99875.25;;;24.44;90.98
43503;BME280;29098;48.184;16.298;2023-08-21T07:42:12;99884.03;;;24.72;89.11
43503;BME280;29098;48.184;16.298;2023-08-21T07:44:39;99879.22;;;24.79;87.53
43503;BME280;29098;48.184;16.298;2023-08-21T07:47:05;99866.34;;;24.97;87.90
43503;BME280;29098;48.184;16.298;2023-08-21T07:49:31;99914.44;;;25.26;84.84
43503;BME280;29098;48.184;16.298;2023-08-21T07:51:56;99869.66;;;25.30;82.19
43503;BME280;29098;48.184;16.298;2023-08-21T07:54:22;99899.44;;;25.61;81.14
43503;BME280;29098;48.184;16.298;2023-08-21T07:56:47;99883.75;;;25.68;80.16
43503;BME280;29098;48.184;16.298;2023-08-21T07:59:13;99912.66;;;25.94;80.30
43503;BME280;29098;48.184;16.298;2023-08-21T08:01:38;99895.63;;;25.98;81.11
43503;BME280;29098;48.184;16.298;2023-08-21T08:04:04;99882.66;;;26.11;77.56
43503;BME280;29098;48.184;16.298;2023-08-21T08:06:31;99900.47;;;26.22;76.07
43503;BME280;29098;48.184;16.298;2023-08-21T08:08:56;99879.94;;;26.21;76.69
43503;BME280;29098;48.184;16.298;2023-08-21T08:11:22;99888.06;;;26.32;76.83
43503;BME280;29098;48.184;16.298;2023-08-21T08:13:48;99878.88;;;26.28;77.49
43503;BME280;29098;48.184;16.298;2023-08-21T08:16:13;99865.88;;;26.30;76.95
43503;BME280;29098;48.184;16.298;2023-08-21T08:18:39;99882.06;;;26.45;75.44
43503;BME280;29098;48.184;16.298;2023-08-21T08:21:04;99893.94;;;26.44;73.66
43503;BME280;29098;48.184;16.298;2023-08-21T08:23:30;99871.50;;;26.54;73.39
43503;BME280;29098;48.184;16.298;2023-08-21T08:25:55;99901.44;;;26.73;72.95
43503;BME280;29098;48.184;16.298;2023-08-21T08:28:21;99867.91;;;26.74;73.09
43503;BME280;29098;48.184;16.298;2023-08-21T08:30:46;99878.13;;;26.83;71.20
43503;BME280;29098;48.184;16.298;2023-08-21T08:33:11;99879.16;;;27.02;70.53
43503;BME280;29098;48.184;16.298;2023-08-21T08:35:37;99868.88;;;26.99;70.05
43503;BME280;29098;48.184;16.298;2023-08-21T08:38:02;99871.59;;;26.99;70.46
43503;BME280;29098;48.184;16.298;2023-08-21T08:40:28;99875.59;;;27.12;68.48
43503;BME280;29098;48.184;16.298;2023-08-21T08:42:54;99893.38;;;27.18;69.99
43503;BME280;29098;48.184;16.298;2023-08-21T08:45:28;99900.69;;;27.23;70.37
43503;BME280;29098;48.184;16.298;2023-08-21T08:47:57;99867.75;;;27.11;70.06
43503;BME280;29098;48.184;16.298;2023-08-21T08:50:25;99892.81;;;27.27;69.53
43503;BME280;29098;48.184;16.298;2023-08-21T08:52:53;99870.59;;;27.30;68.30
43503;BME280;29098;48.184;16.298;2023-08-21T08:55:18;99881.06;;;27.42;68.38
43503;BME280;29098;48.184;16.298;2023-08-21T08:57:44;99869.72;;;27.40;65.75
43503;BME280;29098;48.184;16.298;2023-08-21T09:00:10;99866.16;;;27.44;64.37
43503;BME280;29098;48.184;16.298;2023-08-21T09:02:36;99869.13;;;27.48;65.26
43503;BME280;29098;48.184;16.298;2023-08-21T09:05:01;99868.44;;;27.67;64.64
43503;BME280;29098;48.184;16.298;2023-08-21T09:07:27;99866.84;;;27.66;64.18
43503;BME280;29098;48.184;16.298;2023-08-21T09:09:53;99837.63;;;27.62;62.70
43503;BME280;29098;48.184;16.298;2023-08-21T09:12:19;99859.97;;;27.79;61.81
43503;BME280;29098;48.184;16.298;2023-08-21T09:14:46;99875.31;;;27.88;61.49
43503;BME280;29098;48.184;16.298;2023-08-21T09:17:11;99878.94;;;28.08;60.06
43503;BME280;29098;48.184;16.298;2023-08-21T09:19:37;99870.44;;;28.15;61.88
43503;BME280;29098;48.184;16.298;2023-08-21T09:24:35;99832.97;;;28.27;59.47
43503;BME280;29098;48.184;16.298;2023-08-21T09:27:00;99864.72;;;28.46;58.65
43503;BME280;29098;48.184;16.298;2023-08-21T09:29:27;99860.03;;;28.52;58.26
43503;BME280;29098;48.184;16.298;2023-08-21T09:32:02;99876.13;;;28.67;58.72
43503;BME280;29098;48.184;16.298;2023-08-21T09:34:33;99865.72;;;28.75;56.37
43503;BME280;29098;48.184;16.298;2023-08-21T09:36:59;99861.34;;;28.79;55.87
43503;BME280;29098;48.184;16.298;2023-08-21T09:39:32;99827.91;;;28.64;56.75
43503;BME280;29098;48.184;16.298;2023-08-21T09:41:58;99827.59;;;28.66;58.47
43503;BME280;29098;48.184;16.298;2023-08-21T09:44:24;99833.63;;;28.82;58.94
43503;BME280;29098;48.184;16.298;2023-08-21T09:46:50;99845.78;;;29.09;58.75
43503;BME280;29098;48.184;16.298;2023-08-21T09:49:17;99832.53;;;29.21;58.66
43503;BME280;29098;48.184;16.298;2023-08-21T09:51:42;99824.59;;;29.25;58.48
43503;BME280;29098;48.184;16.298;2023-08-21T09:54:11;99854.44;;;29.44;58.17
43503;BME280;29098;48.184;16.298;2023-08-21T09:56:37;99824.47;;;29.35;54.85
43503;BME280;29098;48.184;16.298;2023-08-21T09:59:02;99820.94;;;29.35;54.99
43503;BME280;29098;48.184;16.298;2023-08-21T10:01:29;99824.06;;;29.61;55.64
43503;BME280;29098;48.184;16.298;2023-08-21T10:03:59;99816.00;;;29.56;54.37
43503;BME280;29098;48.184;16.298;2023-08-21T10:06:25;99814.78;;;29.62;54.57
43503;BME280;29098;48.184;16.298;2023-08-21T10:08:53;99840.59;;;29.79;55.80
43503;BME280;29098;48.184;16.298;2023-08-21T10:11:20;99814.31;;;29.88;55.85
43503;BME280;29098;48.184;16.298;2023-08-21T10:13:49;99823.66;;;30.15;57.54
43503;BME280;29098;48.184;16.298;2023-08-21T10:16:17;99792.25;;;30.23;56.28
43503;BME280;29098;48.184;16.298;2023-08-21T10:18:44;99806.00;;;30.41;53.88
43503;BME280;29098;48.184;16.298;2023-08-21T10:21:15;99816.97;;;30.49;54.93
43503;BME280;29098;48.184;16.298;2023-08-21T10:23:46;99795.91;;;30.55;54.20
43503;BME280;29098;48.184;16.298;2023-08-21T10:26:12;99822.50;;;30.72;51.07
43503;BME280;29098;48.184;16.298;2023-08-21T10:28:53;99815.03;;;30.78;51.07
43503;BME280;29098;48.184;16.298;2023-08-21T10:34:04;99800.91;;;30.90;49.96
43503;BME280;29098;48.184;16.298;2023-08-21T10:36:42;99797.00;;;31.05;50.45
43503;BME280;29098;48.184;16.298;2023-08-21T10:39:26;99800.56;;;31.28;51.65
43503;BME280;29098;48.184;16.298;2023-08-21T10:42:04;99808.56;;;31.56;49.63
43503;BME280;29098;48.184;16.298;2023-08-21T10:47:15;99794.31;;;31.91;46.16
43503;BME280;29098;48.184;16.298;2023-08-21T10:49:42;99807.69;;;32.02;46.51
43503;BME280;29098;48.184;16.298;2023-08-21T10:52:08;99796.22;;;32.31;46.80
43503;BME280;29098;48.184;16.298;2023-08-21T10:54:51;99808.16;;;32.53;44.03
43503;BME280;29098;48.184;16.298;2023-08-21T10:57:17;99779.09;;;32.48;44.30
43503;BME280;29098;48.184;16.298;2023-08-21T11:00:10;99790.22;;;32.96;43.68
43503;BME280;29098;48.184;16.298;2023-08-21T11:02:38;99779.09;;;33.19;44.92
43503;BME280;29098;48.184;16.298;2023-08-21T11:05:05;99800.41;;;33.70;44.53
43503;BME280;29098;48.184;16.298;2023-08-21T11:07:36;99772.44;;;33.94;42.69
43503;BME280;29098;48.184;16.298;2023-08-21T11:10:02;99790.34;;;34.22;43.63
43503;BME280;29098;48.184;16.298;2023-08-21T11:12:28;99796.09;;;34.50;43.31
43503;BME280;29098;48.184;16.298;2023-08-21T11:14:54;99784.97;;;34.77;41.62
43503;BME280;29098;48.184;16.298;2023-08-21T11:17:19;99784.50;;;35.17;41.20
43503;BME280;29098;48.184;16.298;2023-08-21T11:19:45;99762.63;;;35.42;40.88
43503;BME280;29098;48.184;16.298;2023-08-21T11:22:13;99773.41;;;35.60;40.39
43503;BME280;29098;48.184;16.298;2023-08-21T11:24:49;99780.06;;;35.71;39.75
43503;BME280;29098;48.184;16.298;2023-08-21T11:27:17;99764.72;;;35.95;38.33
43503;BME280;29098;48.184;16.298;2023-08-21T11:29:48;99775.94;;;36.15;38.75
43503;BME280;29098;48.184;16.298;2023-08-21T11:34:54;99765.75;;;36.69;36.05
43503;BME280;29098;48.184;16.298;2023-08-21T11:37:25;99783.59;;;36.75;36.98
43503;BME280;29098;48.184;16.298;2023-08-21T11:39:55;99769.75;;;36.71;33.68
43503;BME280;29098;48.184;16.298;2023-08-21T11:42:25;99773.91;;;36.94;33.14
43503;BME280;29098;48.184;16.298;2023-08-21T11:44:53;99771.97;;;36.66;30.27
43503;BME280;29098;48.184;16.298;2023-08-21T11:47:21;99789.53;;;36.77;29.77
43503;BME280;29098;48.184;16.298;2023-08-21T11:49:48;99760.66;;;36.83;31.40
43503;BME280;29098;48.184;16.298;2023-08-21T11:52:22;99759.91;;;36.99;31.73
43503;BME280;29098;48.184;16.298;2023-08-21T11:54:52;99766.44;;;37.23;29.89
43503;BME280;29098;48.184;16.298;2023-08-21T11:57:18;99752.50;;;37.15;31.22
43503;BME280;29098;48.184;16.298;2023-08-21T11:59:49;99743.03;;;37.29;29.46
43503;BME280;29098;48.184;16.298;2023-08-21T12:02:23;99763.31;;;37.08;28.60
43503;BME280;29098;48.184;16.298;2023-08-21T12:05:01;99779.53;;;37.58;30.87
43503;BME280;29098;48.184;16.298;2023-08-21T12:07:28;99756.00;;;37.45;30.79
43503;BME280;29098;48.184;16.298;2023-08-21T12:09:53;99753.78;;;37.82;29.57
43503;BME280;29098;48.184;16.298;2023-08-21T12:12:19;99756.31;;;37.91;28.92
43503;BME280;29098;48.184;16.298;2023-08-21T12:14:45;99742.81;;;38.02;28.95
43503;BME280;29098;48.184;16.298;2023-08-21T12:17:11;99739.47;;;38.09;30.38
43503;BME280;29098;48.184;16.298;2023-08-21T12:19:36;99727.44;;;38.37;29.60
43503;BME280;29098;48.184;16.298;2023-08-21T12:22:02;99742.94;;;38.45;29.76
43503;BME280;29098;48.184;16.298;2023-08-21T12:24:27;99718.41;;;38.56;29.33
43503;BME280;29098;48.184;16.298;2023-08-21T12:26:53;99726.66;;;38.76;29.03
43503;BME280;29098;48.184;16.298;2023-08-21T12:29:18;99726.25;;;38.54;29.60
43503;BME280;29098;48.184;16.298;2023-08-21T12:31:44;99748.34;;;38.97;28.35
43503;BME280;29098;48.184;16.298;2023-08-21T12:34:09;99711.34;;;39.22;28.88
43503;BME280;29098;48.184;16.298;2023-08-21T12:36:35;99710.88;;;38.96;28.98
43503;BME280;29098;48.184;16.298;2023-08-21T12:39:02;99725.78;;;39.15;29.99
43503;BME280;29098;48.184;16.298;2023-08-21T12:41:28;99708.91;;;39.16;29.18
43503;BME280;29098;48.184;16.298;2023-08-21T12:43:54;99700.75;;;39.24;27.78
43503;BME280;29098;48.184;16.298;2023-08-21T12:46:19;99732.50;;;39.64;26.73
43503;BME280;29098;48.184;16.298;2023-08-21T12:48:45;99716.13;;;39.75;26.95
43503;BME280;29098;48.184;16.298;2023-08-21T12:51:10;99703.41;;;39.94;26.91
43503;BME280;29098;48.184;16.298;2023-08-21T12:53:36;99706.19;;;39.97;25.42